sensor_id;sensor_type;location;lat;lon;timestamp;P1;durP1;ratioP1;P2;durP2;ratioP2
79478;SDS011;68943;49.472;17.970;2023-09-08T00:00:10;19.50;;;12.73;;
79478;SDS011;68943;49.472;17.970;2023-09-08T00:02:36;20.55;;;13.13;;
79478;SDS011;68943;49.472;17.970;2023-09-08T00:05:02;20.20;;;13.18;;
79478;SDS011;68943;49.472;17.970;2023-09-08T00:07:28;20.05;;;13.40;;
79478;SDS011;68943;49.472;17.970;2023-09-08T00:09:54;17.23;;;12.55;;
79478;SDS011;68943;49.472;17.970;2023-09-08T00:12:21;19.38;;;13.52;;
79478;SDS011;68943;49.472;17.970;2023-09-08T00:14:47;17.42;;;12.48;;
79478;SDS011;68943;49.472;17.970;2023-09-08T00:17:13;18.92;;;13.60;;
79478;SDS011;68943;49.472;17.970;2023-09-08T00:19:39;19.08;;;12.40;;
79478;SDS011;68943;49.472;17.970;2023-09-08T00:22:06;22.38;;;13.77;;
79478;SDS011;68943;49.472;17.970;2023-09-08T00:24:32;19.70;;;12.88;;
79478;SDS011;68943;49.472;17.970;2023-09-08T00:26:58;21.40;;;13.48;;
79478;SDS011;68943;49.472;17.970;2023-09-08T00:29:24;17.80;;;11.85;;
79478;SDS011;68943;49.472;17.970;2023-09-08T00:31:50;16.70;;;11.60;;
79478;SDS011;68943;49.472;17.970;2023-09-08T00:34:16;16.63;;;11.57;;
79478;SDS011;68943;49.472;17.970;2023-09-08T00:36:42;16.52;;;11.57;;
79478;SDS011;68943;49.472;17.970;2023-09-08T00:39:08;22.23;;;12.27;;
79478;SDS011;68943;49.472;17.970;2023-09-08T00:41:34;16.88;;;11.70;;
79478;SDS011;68943;49.472;17.970;2023-09-08T00:44:00;15.48;;;11.52;;
79478;SDS011;68943;49.472;17.970;2023-09-08T00:46:26;18.50;;;11.52;;
79478;SDS011;68943;49.472;17.970;2023-09-08T00:48:53;14.95;;;10.63;;
79478;SDS011;68943;49.472;17.970;2023-09-08T00:51:19;14.70;;;10.15;;
79478;SDS011;68943;49.472;17.970;2023-09-08T00:53:47;15.77;;;10.80;;
79478;SDS011;68943;49.472;17.970;2023-09-08T00:56:13;13.20;;;10.60;;
79478;SDS011;68943;49.472;17.970;2023-09-08T00:58:39;14.75;;;10.70;;
79478;SDS011;68943;49.472;17.970;2023-09-08T01:01:05;14.40;;;9.85;;
79478;SDS011;68943;49.472;17.970;2023-09-08T01:03:31;16.38;;;10.90;;
79478;SDS011;68943;49.472;17.970;2023-09-08T01:05:57;16.77;;;10.63;;
79478;SDS011;68943;49.472;17.970;2023-09-08T01:08:23;19.42;;;10.98;;
79478;SDS011;68943;49.472;17.970;2023-09-08T01:10:50;17.05;;;11.18;;
79478;SDS011;68943;49.472;17.970;2023-09-08T01:13:20;16.60;;;11.15;;
79478;SDS011;68943;49.472;17.970;2023-09-08T01:15:46;18.52;;;11.98;;
79478;SDS011;68943;49.472;17.970;2023-09-08T01:18:12;17.73;;;11.35;;
79478;SDS011;68943;49.472;17.970;2023-09-08T01:20:57;17.30;;;11.57;;
79478;SDS011;68943;49.472;17.970;2023-09-08T01:23:28;18.90;;;12.27;;
79478;SDS011;68943;49.472;17.970;2023-09-08T01:26:03;17.83;;;11.48;;
79478;SDS011;68943;49.472;17.970;2023-09-08T01:28:30;18.90;;;12.75;;
79478;SDS011;68943;49.472;17.970;2023-09-08T01:30:57;18.27;;;11.00;;
79478;SDS011;68943;49.472;17.970;2023-09-08T01:33:23;17.75;;;11.20;;
79478;SDS011;68943;49.472;17.970;2023-09-08T01:35:49;18.63;;;12.05;;
79478;SDS011;68943;49.472;17.970;2023-09-08T01:38:16;16.20;;;11.90;;
79478;SDS011;68943;49.472;17.970;2023-09-08T01:40:42;18.13;;;12.35;;
79478;SDS011;68943;49.472;17.970;2023-09-08T01:43:08;17.45;;;11.90;;
79478;SDS011;68943;49.472;17.970;2023-09-08T01:45:34;19.05;;;10.95;;
79478;SDS011;68943;49.472;17.970;2023-09-08T01:48:00;15.48;;;10.73;;
79478;SDS011;68943;49.472;17.970;2023-09-08T01:50:26;15.93;;;9.90;;
79478;SDS011;68943;49.472;17.970;2023-09-08T01:52:52;16.35;;;12.07;;
79478;SDS011;68943;49.472;17.970;2023-09-08T01:55:18;15.93;;;10.80;;
79478;SDS011;68943;49.472;17.970;2023-09-08T01:57:45;16.05;;;11.82;;
79478;SDS011;68943;49.472;17.970;2023-09-08T02:00:11;14.18;;;9.98;;
79478;SDS011;68943;49.472;17.970;2023-09-08T02:02:38;15.48;;;11.48;;
79478;SDS011;68943;49.472;17.970;2023-09-08T02:05:04;15.98;;;10.57;;
79478;SDS011;68943;49.472;17.970;2023-09-08T02:07:30;16.95;;;10.90;;
79478;SDS011;68943;49.472;17.970;2023-09-08T02:09:56;18.17;;;11.55;;
79478;SDS011;68943;49.472;17.970;2023-09-08T02:12:22;16.67;;;12.15;;
79478;SDS011;68943;49.472;17.970;2023-09-08T02:14:48;17.10;;;11.27;;
79478;SDS011;68943;49.472;17.970;2023-09-08T02:17:14;15.27;;;10.68;;
79478;SDS011;68943;49.472;17.970;2023-09-08T02:19:40;17.20;;;11.43;;
79478;SDS011;68943;49.472;17.970;2023-09-08T02:22:06;18.13;;;12.63;;
79478;SDS011;68943;49.472;17.970;2023-09-08T02:24:32;16.80;;;11.93;;
79478;SDS011;68943;49.472;17.970;2023-09-08T02:26:58;18.80;;;12.20;;
79478;SDS011;68943;49.472;17.970;2023-09-08T02:29:24;15.93;;;11.07;;
79478;SDS011;68943;49.472;17.970;2023-09-08T02:31:50;16.40;;;11.20;;
79478;SDS011;68943;49.472;17.970;2023-09-08T02:34:16;16.02;;;10.68;;
79478;SDS011;68943;49.472;17.970;2023-09-08T02:36:43;16.73;;;10.55;;
79478;SDS011;68943;49.472;17.970;2023-09-08T02:39:09;15.90;;;10.30;;
79478;SDS011;68943;49.472;17.970;2023-09-08T02:41:35;13.88;;;10.70;;
79478;SDS011;68943;49.472;17.970;2023-09-08T02:44:02;19.88;;;11.27;;
79478;SDS011;68943;49.472;17.970;2023-09-08T02:46:28;15.35;;;10.00;;
79478;SDS011;68943;49.472;17.970;2023-09-08T02:48:54;16.13;;;10.35;;
79478;SDS011;68943;49.472;17.970;2023-09-08T02:51:20;18.52;;;10.88;;
79478;SDS011;68943;49.472;17.970;2023-09-08T02:53:46;13.75;;;10.68;;
79478;SDS011;68943;49.472;17.970;2023-09-08T02:56:12;14.07;;;10.57;;
79478;SDS011;68943;49.472;17.970;2023-09-08T02:58:38;17.00;;;11.57;;
79478;SDS011;68943;49.472;17.970;2023-09-08T03:01:14;17.85;;;12.00;;
79478;SDS011;68943;49.472;17.970;2023-09-08T03:03:41;17.10;;;11.38;;
79478;SDS011;68943;49.472;17.970;2023-09-08T03:06:07;15.23;;;11.38;;
79478;SDS011;68943;49.472;17.970;2023-09-08T03:08:33;16.85;;;11.32;;
79478;SDS011;68943;49.472;17.970;2023-09-08T03:11:02;15.20;;;10.65;;
79478;SDS011;68943;49.472;17.970;2023-09-08T03:13:28;17.65;;;11.57;;
79478;SDS011;68943;49.472;17.970;2023-09-08T03:15:54;19.75;;;11.35;;
79478;SDS011;68943;49.472;17.970;2023-09-08T03:18:22;18.38;;;11.15;;
79478;SDS011;68943;49.472;17.970;2023-09-08T03:20:51;17.35;;;11.70;;
79478;SDS011;68943;49.472;17.970;2023-09-08T03:25:43;14.75;;;10.95;;
79478;SDS011;68943;49.472;17.970;2023-09-08T03:28:09;15.38;;;11.38;;
79478;SDS011;68943;49.472;17.970;2023-09-08T03:30:35;17.58;;;11.88;;
79478;SDS011;68943;49.472;17.970;2023-09-08T03:33:01;19.10;;;12.07;;
79478;SDS011;68943;49.472;17.970;2023-09-08T03:35:27;16.55;;;12.30;;
79478;SDS011;68943;49.472;17.970;2023-09-08T03:37:53;17.35;;;12.40;;
79478;SDS011;68943;49.472;17.970;2023-09-08T03:40:19;19.05;;;12.00;;
79478;SDS011;68943;49.472;17.970;2023-09-08T03:42:45;19.70;;;12.10;;
79478;SDS011;68943;49.472;17.970;2023-09-08T03:45:11;16.65;;;11.32;;
79478;SDS011;68943;49.472;17.970;2023-09-08T03:47:37;19.75;;;10.45;;
79478;SDS011;68943;49.472;17.970;2023-09-08T03:50:03;17.83;;;10.65;;
79478;SDS011;68943;49.472;17.970;2023-09-08T03:52:29;19.17;;;10.45;;
79478;SDS011;68943;49.472;17.970;2023-09-08T03:54:55;19.52;;;11.63;;
79478;SDS011;68943;49.472;17.970;2023-09-08T03:57:21;17.33;;;10.63;;
79478;SDS011;68943;49.472;17.970;2023-09-08T03:59:47;15.32;;;10.20;;
79478;SDS011;68943;49.472;17.970;2023-09-08T04:02:13;16.75;;;9.98;;
79478;SDS011;68943;49.472;17.970;2023-09-08T04:04:39;16.58;;;10.73;;
79478;SDS011;68943;49.472;17.970;2023-09-08T04:07:05;15.75;;;10.90;;
79478;SDS011;68943;49.472;17.970;2023-09-08T04:09:31;14.52;;;9.45;;
79478;SDS011;68943;49.472;17.970;2023-09-08T04:11:57;15.38;;;10.25;;
79478;SDS011;68943;49.472;17.970;2023-09-08T04:14:23;15.60;;;10.15;;
79478;SDS011;68943;49.472;17.970;2023-09-08T04:16:52;12.10;;;9.40;;
79478;SDS011;68943;49.472;17.970;2023-09-08T04:19:18;16.52;;;9.60;;
79478;SDS011;68943;49.472;17.970;2023-09-08T04:21:44;16.92;;;9.93;;
79478;SDS011;68943;49.472;17.970;2023-09-08T04:24:10;15.93;;;9.80;;
79478;SDS011;68943;49.472;17.970;2023-09-08T04:26:36;16.25;;;10.52;;
79478;SDS011;68943;49.472;17.970;2023-09-08T04:29:02;17.55;;;10.15;;
79478;SDS011;68943;49.472;17.970;2023-09-08T04:31:28;18.67;;;11.10;;
79478;SDS011;68943;49.472;17.970;2023-09-08T04:33:54;19.48;;;11.35;;
79478;SDS011;68943;49.472;17.970;2023-09-08T04:36:20;15.98;;;10.48;;
79478;SDS011;68943;49.472;17.970;2023-09-08T04:38:46;15.43;;;10.02;;
79478;SDS011;68943;49.472;17.970;2023-09-08T04:41:12;14.15;;;9.27;;
79478;SDS011;68943;49.472;17.970;2023-09-08T04:43:38;14.20;;;9.32;;
79478;SDS011;68943;49.472;17.970;2023-09-08T04:46:04;13.07;;;9.15;;
79478;SDS011;68943;49.472;17.970;2023-09-08T04:48:30;14.15;;;9.68;;
79478;SDS011;68943;49.472;17.970;2023-09-08T04:50:57;14.88;;;10.55;;
79478;SDS011;68943;49.472;17.970;2023-09-08T04:53:23;15.32;;;8.25;;
79478;SDS011;68943;49.472;17.970;2023-09-08T04:55:49;15.27;;;10.73;;
79478;SDS011;68943;49.472;17.970;2023-09-08T04:58:16;11.43;;;8.35;;
79478;SDS011;68943;49.472;17.970;2023-09-08T05:00:42;14.43;;;7.60;;
79478;SDS011;68943;49.472;17.970;2023-09-08T05:03:08;11.45;;;7.95;;
79478;SDS011;68943;49.472;17.970;2023-09-08T05:05:34;11.55;;;6.82;;
79478;SDS011;68943;49.472;17.970;2023-09-08T05:08:00;9.60;;;6.47;;
79478;SDS011;68943;49.472;17.970;2023-09-08T05:10:26;10.40;;;7.75;;
79478;SDS011;68943;49.472;17.970;2023-09-08T05:12:52;8.50;;;6.55;;
79478;SDS011;68943;49.472;17.970;2023-09-08T05:15:18;8.02;;;6.20;;
79478;SDS011;68943;49.472;17.970;2023-09-08T05:17:46;9.05;;;6.55;;
79478;SDS011;68943;49.472;17.970;2023-09-08T05:20:12;10.23;;;6.82;;
79478;SDS011;68943;49.472;17.970;2023-09-08T05:22:38;8.38;;;5.95;;
79478;SDS011;68943;49.472;17.970;2023-09-08T05:25:05;8.50;;;6.40;;
79478;SDS011;68943;49.472;17.970;2023-09-08T05:27:31;9.98;;;6.78;;
79478;SDS011;68943;49.472;17.970;2023-09-08T05:29:57;8.43;;;6.10;;
79478;SDS011;68943;49.472;17.970;2023-09-08T05:32:23;8.75;;;6.28;;
79478;SDS011;68943;49.472;17.970;2023-09-08T05:34:50;10.38;;;6.43;;
79478;SDS011;68943;49.472;17.970;2023-09-08T05:37:16;15.68;;;11.82;;
79478;SDS011;68943;49.472;17.970;2023-09-08T05:39:42;7.82;;;5.97;;
79478;SDS011;68943;49.472;17.970;2023-09-08T05:42:08;7.30;;;5.55;;
79478;SDS011;68943;49.472;17.970;2023-09-08T05:44:34;8.43;;;5.97;;
79478;SDS011;68943;49.472;17.970;2023-09-08T05:47:00;8.90;;;6.18;;
79478;SDS011;68943;49.472;17.970;2023-09-08T05:49:26;8.35;;;6.18;;
79478;SDS011;68943;49.472;17.970;2023-09-08T05:51:52;8.88;;;5.70;;
79478;SDS011;68943;49.472;17.970;2023-09-08T05:54:18;9.13;;;5.47;;
79478;SDS011;68943;49.472;17.970;2023-09-08T05:56:44;6.30;;;4.65;;
79478;SDS011;68943;49.472;17.970;2023-09-08T05:59:10;7.40;;;5.80;;
79478;SDS011;68943;49.472;17.970;2023-09-08T06:01:39;8.90;;;5.43;;
79478;SDS011;68943;49.472;17.970;2023-09-08T06:04:05;8.75;;;5.95;;
79478;SDS011;68943;49.472;17.970;2023-09-08T06:06:31;7.47;;;5.03;;
79478;SDS011;68943;49.472;17.970;2023-09-08T06:08:58;8.15;;;5.13;;
79478;SDS011;68943;49.472;17.970;2023-09-08T06:11:24;8.60;;;5.82;;
79478;SDS011;68943;49.472;17.970;2023-09-08T06:13:50;6.25;;;4.85;;
79478;SDS011;68943;49.472;17.970;2023-09-08T06:16:17;6.60;;;4.95;;
79478;SDS011;68943;49.472;17.970;2023-09-08T06:18:43;7.50;;;5.38;;
79478;SDS011;68943;49.472;17.970;2023-09-08T06:21:10;6.82;;;5.35;;
79478;SDS011;68943;49.472;17.970;2023-09-08T06:23:37;10.57;;;5.85;;
79478;SDS011;68943;49.472;17.970;2023-09-08T06:26:03;7.90;;;5.38;;
79478;SDS011;68943;49.472;17.970;2023-09-08T06:28:29;8.43;;;5.40;;
79478;SDS011;68943;49.472;17.970;2023-09-08T06:30:55;11.35;;;5.60;;
79478;SDS011;68943;49.472;17.970;2023-09-08T06:33:21;7.22;;;5.60;;
79478;SDS011;68943;49.472;17.970;2023-09-08T06:35:47;8.30;;;5.22;;
79478;SDS011;68943;49.472;17.970;2023-09-08T06:38:13;9.23;;;5.85;;
79478;SDS011;68943;49.472;17.970;2023-09-08T06:40:39;6.93;;;5.40;;
79478;SDS011;68943;49.472;17.970;2023-09-08T06:43:05;7.32;;;4.80;;
79478;SDS011;68943;49.472;17.970;2023-09-08T06:45:33;11.00;;;6.28;;
79478;SDS011;68943;49.472;17.970;2023-09-08T06:47:59;9.85;;;6.90;;
79478;SDS011;68943;49.472;17.970;2023-09-08T06:50:25;10.38;;;5.63;;
79478;SDS011;68943;49.472;17.970;2023-09-08T06:52:52;10.95;;;5.65;;
79478;SDS011;68943;49.472;17.970;2023-09-08T06:55:18;15.00;;;6.90;;
79478;SDS011;68943;49.472;17.970;2023-09-08T06:57:45;11.18;;;6.50;;
79478;SDS011;68943;49.472;17.970;2023-09-08T07:00:11;11.52;;;6.45;;
79478;SDS011;68943;49.472;17.970;2023-09-08T07:02:38;14.90;;;7.63;;
79478;SDS011;68943;49.472;17.970;2023-09-08T07:05:04;18.95;;;8.00;;
79478;SDS011;68943;49.472;17.970;2023-09-08T07:07:34;20.25;;;8.57;;
79478;SDS011;68943;49.472;17.970;2023-09-08T07:10:02;19.85;;;9.20;;
79478;SDS011;68943;49.472;17.970;2023-09-08T07:12:28;19.50;;;9.13;;
79478;SDS011;68943;49.472;17.970;2023-09-08T07:17:24;12.30;;;7.50;;
79478;SDS011;68943;49.472;17.970;2023-09-08T07:19:51;10.15;;;5.75;;
79478;SDS011;68943;49.472;17.970;2023-09-08T07:22:17;12.68;;;5.47;;
79478;SDS011;68943;49.472;17.970;2023-09-08T07:24:44;9.25;;;5.25;;
79478;SDS011;68943;49.472;17.970;2023-09-08T07:27:10;11.32;;;5.63;;
79478;SDS011;68943;49.472;17.970;2023-09-08T07:29:39;11.68;;;5.75;;
79478;SDS011;68943;49.472;17.970;2023-09-08T07:32:05;7.28;;;4.95;;
79478;SDS011;68943;49.472;17.970;2023-09-08T07:34:32;10.15;;;5.22;;
79478;SDS011;68943;49.472;17.970;2023-09-08T07:36:58;8.13;;;4.60;;
79478;SDS011;68943;49.472;17.970;2023-09-08T07:39:24;7.68;;;4.70;;
79478;SDS011;68943;49.472;17.970;2023-09-08T07:41:50;9.65;;;5.65;;
79478;SDS011;68943;49.472;17.970;2023-09-08T07:44:17;11.30;;;6.00;;
79478;SDS011;68943;49.472;17.970;2023-09-08T07:46:43;10.45;;;5.78;;
79478;SDS011;68943;49.472;17.970;2023-09-08T07:49:11;12.27;;;6.50;;
79478;SDS011;68943;49.472;17.970;2023-09-08T07:51:37;8.77;;;5.85;;
79478;SDS011;68943;49.472;17.970;2023-09-08T07:54:03;16.67;;;6.88;;
79478;SDS011;68943;49.472;17.970;2023-09-08T07:56:29;8.95;;;5.50;;
79478;SDS011;68943;49.472;17.970;2023-09-08T07:58:55;8.63;;;5.75;;
79478;SDS011;68943;49.472;17.970;2023-09-08T08:01:21;7.82;;;4.97;;
79478;SDS011;68943;49.472;17.970;2023-09-08T08:03:47;8.65;;;4.22;;
79478;SDS011;68943;49.472;17.970;2023-09-08T08:06:13;8.98;;;3.97;;
79478;SDS011;68943;49.472;17.970;2023-09-08T08:08:39;9.93;;;5.32;;
79478;SDS011;68943;49.472;17.970;2023-09-08T08:11:10;10.10;;;5.78;;
79478;SDS011;68943;49.472;17.970;2023-09-08T08:13:36;9.48;;;5.13;;
79478;SDS011;68943;49.472;17.970;2023-09-08T08:16:03;8.27;;;4.85;;
79478;SDS011;68943;49.472;17.970;2023-09-08T08:18:29;13.65;;;5.28;;
79478;SDS011;68943;49.472;17.970;2023-09-08T08:20:55;8.45;;;4.65;;
79478;SDS011;68943;49.472;17.970;2023-09-08T08:23:21;9.70;;;5.00;;
79478;SDS011;68943;49.472;17.970;2023-09-08T08:25:48;7.25;;;3.97;;
79478;SDS011;68943;49.472;17.970;2023-09-08T08:28:14;8.93;;;4.03;;
79478;SDS011;68943;49.472;17.970;2023-09-08T08:30:40;8.05;;;4.32;;
79478;SDS011;68943;49.472;17.970;2023-09-08T08:33:06;7.95;;;4.28;;
79478;SDS011;68943;49.472;17.970;2023-09-08T08:35:32;7.22;;;3.67;;
79478;SDS011;68943;49.472;17.970;2023-09-08T08:37:59;5.15;;;3.95;;
79478;SDS011;68943;49.472;17.970;2023-09-08T08:40:25;5.75;;;3.50;;
79478;SDS011;68943;49.472;17.970;2023-09-08T08:42:58;6.45;;;3.90;;
79478;SDS011;68943;49.472;17.970;2023-09-08T08:45:25;7.40;;;3.58;;
79478;SDS011;68943;49.472;17.970;2023-09-08T08:47:51;8.23;;;3.60;;
79478;SDS011;68943;49.472;17.970;2023-09-08T08:50:18;5.53;;;3.55;;
79478;SDS011;68943;49.472;17.970;2023-09-08T08:52:44;6.38;;;4.15;;
79478;SDS011;68943;49.472;17.970;2023-09-08T08:55:10;5.72;;;3.65;;
79478;SDS011;68943;49.472;17.970;2023-09-08T08:57:37;5.28;;;3.15;;
79478;SDS011;68943;49.472;17.970;2023-09-08T09:00:06;5.75;;;3.15;;
79478;SDS011;68943;49.472;17.970;2023-09-08T09:02:40;6.85;;;3.17;;
79478;SDS011;68943;49.472;17.970;2023-09-08T09:05:07;6.78;;;3.78;;
79478;SDS011;68943;49.472;17.970;2023-09-08T09:07:33;5.10;;;3.42;;
79478;SDS011;68943;49.472;17.970;2023-09-08T09:09:59;5.40;;;3.08;;
79478;SDS011;68943;49.472;17.970;2023-09-08T09:12:25;6.30;;;3.20;;
79478;SDS011;68943;49.472;17.970;2023-09-08T09:14:53;5.78;;;3.45;;
79478;SDS011;68943;49.472;17.970;2023-09-08T09:17:19;6.57;;;3.63;;
79478;SDS011;68943;49.472;17.970;2023-09-08T09:19:46;8.63;;;3.22;;
79478;SDS011;68943;49.472;17.970;2023-09-08T09:22:12;5.25;;;4.07;;
79478;SDS011;68943;49.472;17.970;2023-09-08T09:24:39;6.70;;;3.17;;
79478;SDS011;68943;49.472;17.970;2023-09-08T09:27:10;6.57;;;3.83;;
79478;SDS011;68943;49.472;17.970;2023-09-08T09:29:57;5.47;;;3.97;;
79478;SDS011;68943;49.472;17.970;2023-09-08T09:32:23;4.88;;;2.88;;
79478;SDS011;68943;49.472;17.970;2023-09-08T09:34:51;7.18;;;3.17;;
79478;SDS011;68943;49.472;17.970;2023-09-08T09:37:18;5.20;;;3.30;;
79478;SDS011;68943;49.472;17.970;2023-09-08T09:39:48;4.63;;;3.38;;
79478;SDS011;68943;49.472;17.970;2023-09-08T09:42:14;6.28;;;3.22;;
79478;SDS011;68943;49.472;17.970;2023-09-08T09:44:41;7.50;;;3.45;;
79478;SDS011;68943;49.472;17.970;2023-09-08T09:47:07;6.95;;;3.45;;
79478;SDS011;68943;49.472;17.970;2023-09-08T09:49:41;5.53;;;3.58;;
79478;SDS011;68943;49.472;17.970;2023-09-08T09:52:07;6.22;;;3.92;;
79478;SDS011;68943;49.472;17.970;2023-09-08T09:54:33;5.85;;;3.00;;
79478;SDS011;68943;49.472;17.970;2023-09-08T09:56:59;7.63;;;3.72;;
79478;SDS011;68943;49.472;17.970;2023-09-08T09:59:26;5.45;;;2.85;;
79478;SDS011;68943;49.472;17.970;2023-09-08T10:01:52;6.07;;;3.67;;
79478;SDS011;68943;49.472;17.970;2023-09-08T10:04:19;5.63;;;3.13;;
79478;SDS011;68943;49.472;17.970;2023-09-08T10:06:45;4.40;;;2.83;;
79478;SDS011;68943;49.472;17.970;2023-09-08T10:09:11;6.03;;;3.03;;
79478;SDS011;68943;49.472;17.970;2023-09-08T10:11:42;6.18;;;3.67;;
79478;SDS011;68943;49.472;17.970;2023-09-08T10:14:09;4.95;;;2.72;;
79478;SDS011;68943;49.472;17.970;2023-09-08T10:16:36;4.63;;;2.95;;
79478;SDS011;68943;49.472;17.970;2023-09-08T10:19:05;6.60;;;3.42;;
79478;SDS011;68943;49.472;17.970;2023-09-08T10:21:33;11.15;;;3.08;;
79478;SDS011;68943;49.472;17.970;2023-09-08T10:24:07;5.97;;;3.08;;
79478;SDS011;68943;49.472;17.970;2023-09-08T10:26:37;6.03;;;2.90;;
79478;SDS011;68943;49.472;17.970;2023-09-08T10:29:06;4.78;;;3.08;;
79478;SDS011;68943;49.472;17.970;2023-09-08T10:31:32;7.05;;;3.67;;
79478;SDS011;68943;49.472;17.970;2023-09-08T10:33:59;4.35;;;2.78;;
79478;SDS011;68943;49.472;17.970;2023-09-08T10:36:25;6.15;;;3.20;;
79478;SDS011;68943;49.472;17.970;2023-09-08T10:38:53;6.72;;;4.03;;
79478;SDS011;68943;49.472;17.970;2023-09-08T10:43:57;7.00;;;3.75;;
79478;SDS011;68943;49.472;17.970;2023-09-08T10:46:28;5.72;;;3.70;;
79478;SDS011;68943;49.472;17.970;2023-09-08T10:48:55;6.35;;;3.20;;
79478;SDS011;68943;49.472;17.970;2023-09-08T10:51:21;9.57;;;3.58;;
79478;SDS011;68943;49.472;17.970;2023-09-08T10:53:48;5.38;;;3.30;;
79478;SDS011;68943;49.472;17.970;2023-09-08T10:56:17;7.22;;;4.30;;
79478;SDS011;68943;49.472;17.970;2023-09-08T10:58:43;5.30;;;3.15;;
79478;SDS011;68943;49.472;17.970;2023-09-08T11:01:17;5.70;;;3.03;;
79478;SDS011;68943;49.472;17.970;2023-09-08T11:03:44;7.78;;;3.55;;
79478;SDS011;68943;49.472;17.970;2023-09-08T11:06:15;4.18;;;3.05;;
79478;SDS011;68943;49.472;17.970;2023-09-08T11:08:44;7.82;;;3.70;;
79478;SDS011;68943;49.472;17.970;2023-09-08T11:11:11;6.85;;;3.75;;
79478;SDS011;68943;49.472;17.970;2023-09-08T11:13:37;5.80;;;3.30;;
79478;SDS011;68943;49.472;17.970;2023-09-08T11:16:07;5.07;;;3.25;;
79478;SDS011;68943;49.472;17.970;2023-09-08T11:18:34;5.15;;;3.30;;
79478;SDS011;68943;49.472;17.970;2023-09-08T11:21:02;6.25;;;3.78;;
79478;SDS011;68943;49.472;17.970;2023-09-08T11:23:28;6.53;;;3.42;;
79478;SDS011;68943;49.472;17.970;2023-09-08T11:25:56;4.47;;;2.85;;
79478;SDS011;68943;49.472;17.970;2023-09-08T11:28:22;4.60;;;3.00;;
79478;SDS011;68943;49.472;17.970;2023-09-08T11:30:48;5.18;;;3.50;;
79478;SDS011;68943;49.472;17.970;2023-09-08T11:33:18;6.72;;;3.30;;
79478;SDS011;68943;49.472;17.970;2023-09-08T11:35:48;8.65;;;3.83;;
79478;SDS011;68943;49.472;17.970;2023-09-08T11:38:14;8.45;;;4.15;;
79478;SDS011;68943;49.472;17.970;2023-09-08T11:40:41;5.15;;;3.35;;
79478;SDS011;68943;49.472;17.970;2023-09-08T11:43:07;5.47;;;3.33;;
79478;SDS011;68943;49.472;17.970;2023-09-08T11:45:37;6.13;;;3.72;;
79478;SDS011;68943;49.472;17.970;2023-09-08T11:48:04;8.15;;;3.38;;
79478;SDS011;68943;49.472;17.970;2023-09-08T11:50:30;5.97;;;3.65;;
79478;SDS011;68943;49.472;17.970;2023-09-08T11:52:57;9.18;;;4.43;;
79478;SDS011;68943;49.472;17.970;2023-09-08T11:55:24;5.97;;;3.58;;
79478;SDS011;68943;49.472;17.970;2023-09-08T11:57:54;7.90;;;3.58;;
79478;SDS011;68943;49.472;17.970;2023-09-08T12:00:22;6.95;;;4.30;;
79478;SDS011;68943;49.472;17.970;2023-09-08T12:02:51;5.68;;;3.30;;
79478;SDS011;68943;49.472;17.970;2023-09-08T12:05:21;7.57;;;3.40;;
79478;SDS011;68943;49.472;17.970;2023-09-08T12:07:54;8.13;;;3.95;;
79478;SDS011;68943;49.472;17.970;2023-09-08T12:10:21;7.00;;;4.60;;
79478;SDS011;68943;49.472;17.970;2023-09-08T12:12:51;6.45;;;4.20;;
79478;SDS011;68943;49.472;17.970;2023-09-08T12:15:39;6.85;;;4.25;;
79478;SDS011;68943;49.472;17.970;2023-09-08T12:18:12;9.75;;;3.92;;
79478;SDS011;68943;49.472;17.970;2023-09-08T12:23:06;4.53;;;2.90;;
79478;SDS011;68943;49.472;17.970;2023-09-08T12:25:44;7.80;;;3.88;;
79478;SDS011;68943;49.472;17.970;2023-09-08T12:28:10;5.20;;;3.42;;
79478;SDS011;68943;49.472;17.970;2023-09-08T12:30:36;5.90;;;3.97;;
79478;SDS011;68943;49.472;17.970;2023-09-08T12:33:02;4.10;;;3.10;;
79478;SDS011;68943;49.472;17.970;2023-09-08T12:35:28;7.55;;;4.05;;
79478;SDS011;68943;49.472;17.970;2023-09-08T12:37:58;7.43;;;3.72;;
79478;SDS011;68943;49.472;17.970;2023-09-08T12:40:28;6.53;;;4.18;;
79478;SDS011;68943;49.472;17.970;2023-09-08T12:42:55;5.97;;;3.53;;
79478;SDS011;68943;49.472;17.970;2023-09-08T12:45:21;5.10;;;3.17;;
79478;SDS011;68943;49.472;17.970;2023-09-08T12:47:48;7.22;;;3.88;;
79478;SDS011;68943;49.472;17.970;2023-09-08T12:50:14;5.13;;;3.60;;
79478;SDS011;68943;49.472;17.970;2023-09-08T12:52:40;8.52;;;4.13;;
79478;SDS011;68943;49.472;17.970;2023-09-08T12:55:07;5.88;;;3.90;;
79478;SDS011;68943;49.472;17.970;2023-09-08T12:57:34;5.82;;;3.28;;
79478;SDS011;68943;49.472;17.970;2023-09-08T13:00:00;6.63;;;4.13;;
79478;SDS011;68943;49.472;17.970;2023-09-08T13:02:26;8.27;;;3.55;;
79478;SDS011;68943;49.472;17.970;2023-09-08T13:04:52;5.13;;;2.88;;
79478;SDS011;68943;49.472;17.970;2023-09-08T13:07:19;7.72;;;3.83;;
79478;SDS011;68943;49.472;17.970;2023-09-08T13:09:45;8.55;;;3.03;;
79478;SDS011;68943;49.472;17.970;2023-09-08T13:12:11;4.93;;;3.03;;
79478;SDS011;68943;49.472;17.970;2023-09-08T13:14:41;5.68;;;4.20;;
79478;SDS011;68943;49.472;17.970;2023-09-08T13:17:08;8.45;;;3.85;;
79478;SDS011;68943;49.472;17.970;2023-09-08T13:19:34;7.45;;;4.15;;
79478;SDS011;68943;49.472;17.970;2023-09-08T13:22:02;5.07;;;3.30;;
79478;SDS011;68943;49.472;17.970;2023-09-08T13:24:28;7.10;;;4.47;;
79478;SDS011;68943;49.472;17.970;2023-09-08T13:26:54;12.10;;;4.32;;
79478;SDS011;68943;49.472;17.970;2023-09-08T13:29:21;12.02;;;4.05;;
79478;SDS011;68943;49.472;17.970;2023-09-08T13:31:48;7.53;;;4.10;;
79478;SDS011;68943;49.472;17.970;2023-09-08T13:34:14;11.02;;;6.32;;
79478;SDS011;68943;49.472;17.970;2023-09-08T13:36:40;6.35;;;3.75;;
79478;SDS011;68943;49.472;17.970;2023-09-08T13:39:06;7.07;;;3.22;;
79478;SDS011;68943;49.472;17.970;2023-09-08T13:41:52;5.22;;;3.70;;
79478;SDS011;68943;49.472;17.970;2023-09-08T13:44:21;5.13;;;4.10;;
79478;SDS011;68943;49.472;17.970;2023-09-08T13:46:48;5.78;;;3.67;;
79478;SDS011;68943;49.472;17.970;2023-09-08T13:49:14;5.60;;;3.75;;
79478;SDS011;68943;49.472;17.970;2023-09-08T13:51:41;6.85;;;3.92;;
79478;SDS011;68943;49.472;17.970;2023-09-08T13:54:08;7.75;;;4.30;;
79478;SDS011;68943;49.472;17.970;2023-09-08T13:56:34;6.03;;;3.80;;
79478;SDS011;68943;49.472;17.970;2023-09-08T13:59:03;6.50;;;3.70;;
79478;SDS011;68943;49.472;17.970;2023-09-08T14:01:29;6.03;;;4.65;;
79478;SDS011;68943;49.472;17.970;2023-09-08T14:03:56;6.28;;;3.97;;
79478;SDS011;68943;49.472;17.970;2023-09-08T14:06:23;7.22;;;4.10;;
79478;SDS011;68943;49.472;17.970;2023-09-08T14:08:50;6.55;;;4.10;;
79478;SDS011;68943;49.472;17.970;2023-09-08T14:11:16;6.55;;;4.43;;
79478;SDS011;68943;49.472;17.970;2023-09-08T14:13:42;5.50;;;4.35;;
79478;SDS011;68943;49.472;17.970;2023-09-08T14:16:11;7.72;;;3.58;;
79478;SDS011;68943;49.472;17.970;2023-09-08T14:18:37;10.70;;;3.47;;
79478;SDS011;68943;49.472;17.970;2023-09-08T14:21:04;6.05;;;3.08;;
79478;SDS011;68943;49.472;17.970;2023-09-08T14:23:30;6.68;;;3.65;;
79478;SDS011;68943;49.472;17.970;2023-09-08T14:25:56;8.15;;;4.65;;
79478;SDS011;68943;49.472;17.970;2023-09-08T14:28:23;8.38;;;4.25;;
79478;SDS011;68943;49.472;17.970;2023-09-08T14:30:50;6.57;;;3.70;;